createdAt,value
2023-02-23T00:00:44.885Z,8.17
2023-02-23T00:05:53.092Z,9.90
2023-02-23T00:10:59.000Z,19.70
2023-02-23T00:16:06.667Z,15.37
2023-02-23T00:21:09.896Z,13.60
2023-02-23T00:26:14.088Z,10.17
2023-02-23T00:31:18.380Z,9.87
2023-02-23T00:36:24.660Z,9.93
2023-02-23T00:41:31.537Z,9.50
2023-02-23T00:46:35.283Z,11.20
2023-02-23T00:51:39.771Z,9.30
2023-02-23T00:56:43.559Z,9.33
2023-02-23T01:01:47.101Z,8.90
2023-02-23T01:06:50.386Z,9.63
2023-02-23T01:11:53.629Z,6.57
2023-02-23T01:16:56.812Z,7.13
2023-02-23T01:22:02.596Z,7.70
2023-02-23T01:27:05.815Z,8.03
2023-02-23T01:32:09.538Z,9.00
2023-02-23T01:37:13.334Z,7.87
2023-02-23T01:42:16.555Z,8.97
2023-02-23T01:47:20.756Z,8.53
2023-02-23T01:52:24.517Z,8.53
2023-02-23T01:57:27.722Z,9.10
2023-02-23T02:02:34.119Z,10.03
2023-02-23T02:07:39.953Z,10.60
2023-02-23T02:12:52.924Z,9.33
2023-02-23T02:18:31.155Z,8.63
2023-02-23T02:24:08.501Z,8.73
2023-02-23T02:29:20.607Z,9.97
2023-02-23T02:35:01.178Z,9.43
2023-02-23T02:40:23.118Z,10.43
2023-02-23T02:45:39.186Z,8.87
2023-02-23T02:50:57.968Z,9.17
2023-02-23T02:56:06.534Z,6.63
2023-02-23T03:01:33.650Z,7.17
2023-02-23T03:07:11.075Z,5.53
2023-02-23T03:12:48.023Z,5.47
2023-02-23T03:18:32.696Z,5.23
2023-02-23T03:24:22.204Z,5.50
2023-02-23T03:30:04.361Z,7.00
2023-02-23T03:35:35.632Z,6.97
2023-02-23T03:41:00.982Z,9.30
2023-02-23T03:46:27.384Z,8.87
2023-02-23T03:51:52.642Z,7.27
2023-02-23T03:57:18.193Z,7.30
2023-02-23T04:02:41.706Z,6.03
2023-02-23T04:08:08.428Z,5.83
2023-02-23T04:13:18.350Z,6.33
2023-02-23T04:18:29.010Z,6.77
2023-02-23T04:23:32.860Z,8.77
2023-02-23T04:28:36.205Z,6.97
2023-02-23T04:33:39.808Z,7.23
2023-02-23T04:38:43.309Z,9.93
2023-02-23T04:43:46.478Z,13.97
2023-02-23T04:48:49.919Z,8.97
2023-02-23T04:53:53.303Z,7.33
2023-02-23T04:58:56.493Z,9.07
2023-02-23T05:04:00.783Z,10.53
2023-02-23T05:09:06.665Z,7.23
2023-02-23T05:14:11.353Z,7.60
2023-02-23T05:19:14.755Z,6.70
2023-02-23T05:24:19.267Z,5.30
2023-02-23T05:29:22.663Z,6.20
2023-02-23T05:34:25.938Z,6.90
2023-02-23T05:39:29.234Z,6.00
2023-02-23T05:44:32.631Z,7.50
2023-02-23T05:49:35.961Z,7.60
2023-02-23T05:54:39.200Z,7.37
2023-02-23T05:59:42.492Z,8.03
2023-02-23T06:04:47.244Z,6.70
2023-02-23T06:09:50.467Z,6.37
2023-02-23T06:14:53.723Z,5.93
2023-02-23T06:19:57.019Z,5.90
2023-02-23T06:25:00.407Z,7.00
2023-02-23T06:30:03.911Z,6.97
2023-02-23T06:35:08.622Z,6.30
2023-02-23T06:40:12.316Z,6.07
2023-02-23T06:45:15.499Z,5.07
2023-02-23T06:50:18.818Z,6.97
2023-02-23T06:55:22.057Z,5.73
2023-02-23T07:00:25.362Z,6.50
2023-02-23T07:05:29.111Z,6.03
2023-02-23T07:10:32.721Z,4.73
2023-02-23T07:15:37.642Z,6.13
2023-02-23T07:20:41.786Z,6.53
2023-02-23T07:25:45.510Z,7.03
2023-02-23T07:30:50.321Z,6.97
2023-02-23T07:35:53.566Z,7.53
2023-02-23T07:40:56.866Z,5.80
2023-02-23T07:46:02.036Z,7.03
2023-02-23T07:51:11.420Z,6.50
2023-02-23T07:56:14.794Z,9.77
2023-02-23T08:01:18.886Z,13.20
2023-02-23T08:06:22.606Z,8.37
2023-02-23T08:11:29.064Z,6.87
2023-02-23T08:16:34.509Z,7.43
2023-02-23T08:21:37.795Z,8.80
2023-02-23T08:26:41.858Z,5.50
2023-02-23T08:31:45.442Z,7.10
2023-02-23T08:36:49.826Z,7.87
2023-02-23T08:41:56.041Z,7.03
2023-02-23T08:46:59.524Z,5.80
2023-02-23T08:52:08.272Z,5.97
2023-02-23T08:57:20.297Z,7.80
2023-02-23T09:02:24.228Z,8.20
2023-02-23T09:07:29.913Z,8.43
2023-02-23T09:12:33.269Z,6.97
2023-02-23T09:17:37.151Z,7.27
2023-02-23T09:22:49.024Z,8.63
2023-02-23T09:27:56.850Z,8.77
2023-02-23T09:32:59.936Z,8.63
2023-02-23T09:38:05.479Z,7.80
2023-02-23T09:43:41.311Z,9.60
2023-02-23T09:48:45.367Z,8.90
2023-02-23T09:53:58.180Z,7.73
2023-02-23T09:59:02.177Z,10.37
2023-02-23T10:04:29.253Z,9.63
2023-02-23T10:09:45.178Z,7.77
2023-02-23T10:14:57.624Z,9.17
2023-02-23T10:20:13.916Z,8.70
2023-02-23T10:25:24.595Z,9.90
2023-02-23T10:30:30.593Z,9.83
2023-02-23T10:35:34.567Z,10.20
2023-02-23T10:40:37.927Z,9.40
2023-02-23T10:45:53.481Z,8.20
2023-02-23T10:51:03.288Z,9.50
2023-02-23T10:56:13.185Z,9.70
2023-02-23T11:02:01.077Z,10.37
2023-02-23T11:07:18.552Z,11.53
2023-02-23T11:12:31.112Z,9.47
2023-02-23T11:17:37.220Z,9.63
2023-02-23T11:22:42.859Z,9.90
2023-02-23T11:27:51.917Z,9.87
2023-02-23T11:32:59.205Z,10.23
2023-02-23T11:38:21.159Z,10.20
2023-02-23T11:43:24.381Z,10.20
2023-02-23T11:48:49.999Z,9.63
2023-02-23T11:53:53.692Z,11.50
2023-02-23T11:59:03.682Z,10.53
2023-02-23T12:04:10.276Z,10.00
2023-02-23T12:09:30.003Z,11.70
2023-02-23T12:14:40.668Z,11.17
2023-02-23T12:19:54.016Z,11.40
2023-02-23T12:25:11.758Z,12.47
2023-02-23T12:30:28.486Z,10.47
2023-02-23T12:35:49.734Z,10.97
2023-02-23T12:40:57.419Z,11.60
2023-02-23T12:46:21.232Z,11.17
2023-02-23T12:51:47.983Z,11.03
2023-02-23T12:57:12.508Z,11.77
2023-02-23T13:02:39.369Z,11.80
2023-02-23T13:08:12.801Z,11.07
2023-02-23T13:13:44.830Z,12.83
2023-02-23T13:19:11.442Z,11.93
2023-02-23T13:24:44.453Z,12.37
2023-02-23T13:29:50.315Z,11.97
2023-02-23T13:35:07.153Z,12.17
2023-02-23T13:40:31.965Z,10.17
2023-02-23T13:45:59.037Z,11.17
2023-02-23T13:51:18.547Z,10.43
2023-02-23T13:56:26.031Z,11.40
2023-02-23T14:01:34.148Z,12.53
2023-02-23T14:06:37.769Z,12.30
2023-02-23T14:12:04.006Z,12.20
2023-02-23T14:17:17.888Z,12.87
2023-02-23T14:22:22.691Z,12.93
2023-02-23T14:27:43.888Z,13.80
2023-02-23T14:32:49.183Z,13.20
2023-02-23T14:38:00.218Z,10.60
2023-02-23T14:43:04.714Z,13.90
2023-02-23T14:48:18.797Z,11.90
2023-02-23T14:53:25.773Z,12.73
2023-02-23T14:58:35.692Z,12.97
2023-02-23T15:03:39.688Z,14.20
2023-02-23T15:08:46.290Z,13.13
2023-02-23T15:13:51.290Z,13.53
2023-02-23T15:19:32.596Z,16.33
2023-02-23T15:24:47.877Z,13.87
2023-02-23T15:29:52.250Z,13.57
2023-02-23T15:35:03.956Z,16.47
2023-02-23T15:40:15.638Z,18.30
2023-02-23T15:45:43.984Z,14.57
2023-02-23T15:50:57.911Z,16.17
2023-02-23T15:56:06.477Z,14.63
2023-02-23T16:01:13.569Z,17.70
2023-02-23T16:06:25.003Z,15.87
2023-02-23T16:11:44.096Z,14.60
2023-02-23T16:17:01.329Z,15.03
2023-02-23T16:22:25.346Z,16.87
2023-02-23T16:27:30.633Z,18.17
2023-02-23T16:32:38.764Z,19.33
2023-02-23T16:38:02.036Z,19.63
2023-02-23T16:43:06.505Z,16.97
2023-02-23T16:48:22.014Z,18.87
2023-02-23T16:53:27.195Z,17.00
2023-02-23T16:58:34.553Z,19.63
2023-02-23T17:03:47.354Z,16.00
2023-02-23T17:08:58.544Z,15.90
2023-02-23T17:14:03.678Z,16.87
2023-02-23T17:19:09.619Z,25.13
2023-02-23T17:24:15.039Z,22.63
2023-02-23T17:29:21.146Z,21.90
2023-02-23T17:34:28.007Z,22.43
2023-02-23T17:39:37.220Z,23.87
2023-02-23T17:44:48.457Z,28.53
2023-02-23T17:49:58.631Z,40.17
2023-02-23T17:55:10.578Z,23.07
2023-02-23T18:00:21.383Z,21.07
2023-02-23T18:05:29.123Z,22.47
2023-02-23T18:10:38.986Z,23.03
2023-02-23T18:16:01.398Z,18.97
2023-02-23T18:21:18.876Z,17.93
2023-02-23T18:26:28.561Z,18.80
2023-02-23T18:31:36.537Z,21.97
2023-02-23T18:36:45.336Z,24.87
2023-02-23T18:41:52.899Z,24.53
2023-02-23T18:47:02.682Z,25.87
2023-02-23T18:52:12.851Z,22.30
2023-02-23T18:57:20.160Z,22.73
2023-02-23T19:02:34.285Z,23.27
2023-02-23T19:07:47.025Z,23.33
2023-02-23T19:13:02.929Z,21.47
2023-02-23T19:18:14.063Z,20.77
2023-02-23T19:23:23.980Z,21.20
2023-02-23T19:28:39.806Z,21.07
2023-02-23T19:33:55.570Z,20.97
2023-02-23T19:39:13.926Z,22.77
2023-02-23T19:44:25.356Z,27.50
2023-02-23T19:49:35.032Z,31.30
2023-02-23T19:54:45.260Z,29.77
2023-02-23T19:59:54.616Z,25.27
2023-02-23T20:05:02.377Z,26.93
2023-02-23T20:10:11.424Z,31.10
2023-02-23T20:15:18.742Z,31.03
2023-02-23T20:20:30.551Z,30.03
2023-02-23T20:25:36.567Z,29.77
2023-02-23T20:30:48.327Z,26.07
2023-02-23T20:35:54.351Z,24.27
2023-02-23T20:40:59.908Z,23.93
2023-02-23T20:46:05.135Z,23.13
2023-02-23T20:51:14.965Z,23.07
2023-02-23T20:56:23.142Z,28.23
2023-02-23T21:01:28.354Z,23.93
2023-02-23T21:06:33.619Z,23.73
2023-02-23T21:11:39.559Z,23.50
2023-02-23T21:16:47.615Z,24.73
2023-02-23T21:21:59.056Z,24.67
2023-02-23T21:27:06.347Z,26.27
2023-02-23T21:32:17.342Z,24.73
2023-02-23T21:37:21.633Z,24.03
2023-02-23T21:42:25.487Z,24.43
2023-02-23T21:47:29.288Z,24.23
2023-02-23T21:52:34.733Z,26.63
2023-02-23T21:57:39.635Z,25.70
2023-02-23T22:02:46.959Z,26.50
2023-02-23T22:07:52.437Z,26.83
2023-02-23T22:12:57.149Z,26.87
2023-02-23T22:18:00.605Z,26.83
2023-02-23T22:23:03.728Z,27.23
2023-02-23T22:28:10.926Z,29.27
2023-02-23T22:33:14.048Z,27.40
2023-02-23T22:38:20.365Z,28.77
2023-02-23T22:43:23.494Z,28.23
2023-02-23T22:48:29.187Z,28.70
2023-02-23T22:53:32.486Z,31.63
2023-02-23T22:58:36.606Z,31.73
2023-02-23T23:03:47.796Z,31.10
2023-02-23T23:08:52.963Z,32.93
2023-02-23T23:14:09.582Z,33.93
2023-02-23T23:19:12.811Z,33.77
2023-02-23T23:24:16.229Z,32.70
2023-02-23T23:29:19.456Z,33.87
2023-02-23T23:34:22.654Z,32.70
2023-02-23T23:39:26.516Z,33.83
2023-02-23T23:44:29.837Z,36.83
2023-02-23T23:49:41.256Z,32.97
2023-02-23T23:54:45.005Z,35.73
2023-02-23T23:59:49.227Z,33.03
